createdAt,value
2019-05-30T00:34:05.963Z,18.90
2019-05-30T00:36:35.521Z,11.70
2019-05-30T00:39:06.538Z,11.50
2019-05-30T00:41:35.877Z,11.50
2019-05-30T00:44:06.324Z,11.40
2019-05-30T00:46:35.674Z,11.30
2019-05-30T00:49:06.614Z,11.20
2019-05-30T00:51:36.848Z,11.10
2019-05-30T00:54:06.997Z,10.90
2019-05-30T00:56:36.299Z,10.80
2019-05-30T00:59:05.455Z,10.80
2019-05-30T01:01:34.552Z,10.70
2019-05-30T01:04:04.895Z,10.60
2019-05-30T01:06:34.075Z,10.50
2019-05-30T01:09:03.423Z,10.40
2019-05-30T01:11:50.216Z,10.30
2019-05-30T01:14:22.069Z,10.30
2019-05-30T01:16:51.326Z,10.30
2019-05-30T01:19:20.551Z,10.20
2019-05-30T01:21:51.563Z,10.30
2019-05-30T01:24:20.701Z,10.30
2019-05-30T01:26:49.842Z,10.30
2019-05-30T01:29:19.031Z,10.40
2019-05-30T01:31:48.280Z,10.40
2019-05-30T01:34:17.471Z,10.40
2019-05-30T01:36:46.534Z,10.50
2019-05-30T01:39:30.829Z,10.50
2019-05-30T01:41:59.883Z,10.50
2019-05-30T01:44:29.119Z,10.40
2019-05-30T01:46:58.245Z,10.30
2019-05-30T01:49:27.441Z,10.30
2019-05-30T01:51:56.556Z,10.30
2019-05-30T01:54:25.725Z,10.20
2019-05-30T01:56:54.875Z,10.10
2019-05-30T01:59:24.060Z,10.20
2019-05-30T02:01:53.201Z,10.20
2019-05-30T02:04:22.359Z,10.10
2019-05-30T02:06:51.374Z,10.00
2019-05-30T02:09:20.542Z,10.00
2019-05-30T02:11:49.584Z,9.90
2019-05-30T02:14:18.692Z,9.80
2019-05-30T02:16:47.941Z,9.80
2019-05-30T02:19:17.529Z,9.90
2019-05-30T02:21:46.695Z,9.90
2019-05-30T02:24:15.959Z,10.00
2019-05-30T02:26:45.059Z,9.90
2019-05-30T02:29:14.235Z,9.90
2019-05-30T02:31:43.251Z,9.80
2019-05-30T02:34:12.505Z,9.70
2019-05-30T02:36:41.653Z,9.50
2019-05-30T02:39:12.042Z,9.60
2019-05-30T02:41:41.405Z,9.70
2019-05-30T02:44:12.531Z,9.60
2019-05-30T02:46:41.237Z,9.50
2019-05-30T02:49:11.898Z,9.50
2019-05-30T02:51:41.128Z,9.50
2019-05-30T02:54:11.500Z,9.40
2019-05-30T02:56:40.910Z,9.40
2019-05-30T02:59:11.569Z,9.40
2019-05-30T03:01:58.961Z,9.50
2019-05-30T03:04:12.881Z,9.40
2019-05-30T03:06:42.611Z,9.30
2019-05-30T03:09:13.126Z,9.20
2019-05-30T03:11:42.318Z,9.30
2019-05-30T03:14:19.195Z,9.30
2019-05-30T03:16:43.282Z,9.40
2019-05-30T03:19:13.151Z,9.40
2019-05-30T03:21:42.271Z,9.30
2019-05-30T03:24:13.702Z,9.30
2019-05-30T03:26:43.790Z,9.30
2019-05-30T03:29:14.311Z,9.30
2019-05-30T03:31:45.072Z,9.40
2019-05-30T03:34:26.042Z,9.30
2019-05-30T03:36:44.988Z,9.30
2019-05-30T03:39:15.324Z,9.20
2019-05-30T03:41:44.970Z,9.30
2019-05-30T03:44:15.636Z,9.30
2019-05-30T03:46:49.733Z,9.40
2019-05-30T03:49:22.439Z,9.30
2019-05-30T03:51:53.464Z,9.30
2019-05-30T03:54:24.169Z,9.40
2019-05-30T03:56:57.015Z,9.40
2019-05-30T03:59:32.027Z,9.30
2019-05-30T04:02:23.128Z,9.30
2019-05-30T04:04:58.232Z,9.30
2019-05-30T04:07:29.994Z,9.30
2019-05-30T04:10:02.229Z,9.30
2019-05-30T04:12:50.676Z,9.40
2019-05-30T04:15:31.447Z,9.50
2019-05-30T04:18:00.784Z,9.70
2019-05-30T04:20:30.452Z,9.70
2019-05-30T04:22:59.607Z,9.80
2019-05-30T04:25:28.983Z,9.90
2019-05-30T04:27:58.157Z,9.80
2019-05-30T04:30:27.305Z,9.90
2019-05-30T04:33:15.740Z,9.90
2019-05-30T04:35:27.244Z,10.10
2019-05-30T04:37:56.458Z,10.20
2019-05-30T04:40:25.606Z,10.10
2019-05-30T04:42:54.761Z,10.20
2019-05-30T04:45:27.700Z,10.20
2019-05-30T04:47:54.490Z,10.30
2019-05-30T04:50:23.753Z,10.30
2019-05-30T04:52:52.934Z,10.30
2019-05-30T04:55:23.178Z,10.50
2019-05-30T04:57:52.552Z,10.50
2019-05-30T05:00:21.871Z,10.60
2019-05-30T05:02:51.028Z,10.70
2019-05-30T05:05:26.300Z,10.80
2019-05-30T05:07:52.650Z,10.90
2019-05-30T05:10:22.543Z,11.10
2019-05-30T05:12:51.839Z,11.20
2019-05-30T05:15:22.657Z,11.20
2019-05-30T05:17:51.938Z,11.20
2019-05-30T05:20:21.406Z,11.30
2019-05-30T05:22:50.777Z,11.30
2019-05-30T05:25:19.853Z,11.30
2019-05-30T05:27:48.890Z,11.40
2019-05-30T05:30:20.219Z,11.50
2019-05-30T05:32:49.301Z,11.70
2019-05-30T05:35:18.723Z,11.70
2019-05-30T05:37:48.016Z,11.80
2019-05-30T05:40:18.081Z,11.90
2019-05-30T05:42:47.297Z,12.10
2019-05-30T05:45:18.205Z,12.20
2019-05-30T05:47:47.384Z,12.20
2019-05-30T05:50:16.812Z,12.30
2019-05-30T05:52:46.074Z,12.40
2019-05-30T05:55:16.603Z,12.40
2019-05-30T05:57:45.752Z,12.50
2019-05-30T06:00:16.794Z,12.70
2019-05-30T06:02:45.949Z,12.70
2019-05-30T06:05:15.945Z,12.80
2019-05-30T06:07:45.365Z,12.80
2019-05-30T06:10:14.725Z,12.90
2019-05-30T06:12:43.804Z,13.00
2019-05-30T06:15:13.078Z,13.00
2019-05-30T06:17:42.111Z,13.20
2019-05-30T06:20:11.533Z,13.10
2019-05-30T06:22:41.289Z,13.30
2019-05-30T06:25:10.661Z,13.40
2019-05-30T06:27:39.738Z,13.50
2019-05-30T06:30:10.993Z,13.60
2019-05-30T06:32:40.790Z,13.60
2019-05-30T06:35:10.098Z,13.60
2019-05-30T06:37:39.301Z,13.60
2019-05-30T06:40:10.399Z,13.70
2019-05-30T06:42:39.586Z,13.70
2019-05-30T06:45:09.108Z,13.70
2019-05-30T06:47:38.229Z,13.80
2019-05-30T06:50:08.113Z,13.90
2019-05-30T06:52:37.287Z,14.00
2019-05-30T06:55:10.112Z,14.20
2019-05-30T06:57:39.234Z,14.30
2019-05-30T07:00:08.794Z,14.40
2019-05-30T07:02:38.431Z,14.50
2019-05-30T07:05:08.290Z,14.60
2019-05-30T07:07:38.285Z,14.70
2019-05-30T07:10:08.738Z,14.90
2019-05-30T07:12:38.031Z,15.10
2019-05-30T07:15:07.929Z,15.20
2019-05-30T07:17:37.257Z,15.20
2019-05-30T07:20:06.955Z,15.40
2019-05-30T07:22:36.227Z,15.60
2019-05-30T07:25:06.195Z,15.80
2019-05-30T07:27:35.375Z,16.00
2019-05-30T07:30:05.184Z,16.20
2019-05-30T07:32:34.509Z,16.50
2019-05-30T07:35:07.263Z,16.80
2019-05-30T07:37:34.820Z,17.10
2019-05-30T07:40:04.003Z,17.30
2019-05-30T07:42:33.022Z,17.30
2019-05-30T07:45:10.265Z,17.40
2019-05-30T07:47:39.774Z,17.60
2019-05-30T07:50:10.898Z,17.70
2019-05-30T07:52:43.572Z,18.10
2019-05-30T07:55:13.635Z,18.40
2019-05-30T07:57:43.070Z,18.70
2019-05-30T08:00:14.644Z,18.70
2019-05-30T08:02:46.093Z,18.90
2019-05-30T08:05:24.202Z,18.90
2019-05-30T08:07:47.944Z,18.80
2019-05-30T08:10:18.046Z,18.60
2019-05-30T08:12:48.103Z,18.60
2019-05-30T08:15:22.751Z,18.70
2019-05-30T08:17:52.961Z,18.50
2019-05-30T08:20:24.888Z,18.70
2019-05-30T08:22:54.148Z,18.80
2019-05-30T08:25:27.884Z,19.10
2019-05-30T08:27:56.933Z,19.10
2019-05-30T08:30:28.323Z,19.00
2019-05-30T08:33:00.514Z,19.10
2019-05-30T08:35:39.088Z,19.30
2019-05-30T08:38:05.100Z,19.30
2019-05-30T08:40:35.397Z,19.50
2019-05-30T08:43:04.724Z,19.60
2019-05-30T08:45:34.285Z,20.10
2019-05-30T08:48:04.187Z,20.20
2019-05-30T08:50:36.360Z,20.40
2019-05-30T08:53:05.011Z,20.60
2019-05-30T08:55:36.584Z,20.80
2019-05-30T08:58:06.548Z,21.10
2019-05-30T09:00:38.748Z,21.50
2019-05-30T09:03:15.010Z,20.50
2019-05-30T09:05:59.246Z,20.70
2019-05-30T09:08:15.806Z,21.50
2019-05-30T09:10:46.481Z,21.70
2019-05-30T09:13:18.125Z,22.10
2019-05-30T09:15:47.807Z,22.00
2019-05-30T09:18:23.107Z,22.30
2019-05-30T09:20:52.875Z,21.70
2019-05-30T09:23:22.036Z,22.00
2019-05-30T09:25:51.646Z,22.70
2019-05-30T09:28:23.022Z,22.30
2019-05-30T09:30:52.555Z,22.60
2019-05-30T09:33:21.825Z,24.00
2019-05-30T09:35:51.177Z,24.70
2019-05-30T09:38:20.409Z,24.90
2019-05-30T09:40:49.693Z,25.20
2019-05-30T09:43:18.777Z,25.40
2019-05-30T09:45:48.127Z,25.50
2019-05-30T09:48:17.120Z,25.70
2019-05-30T09:50:51.041Z,26.20
2019-05-30T09:53:20.539Z,25.10
2019-05-30T09:55:51.487Z,25.60
2019-05-30T09:58:22.160Z,25.70
2019-05-30T10:00:58.602Z,26.00
2019-05-30T10:03:28.061Z,26.70
2019-05-30T10:05:57.227Z,26.80
2019-05-30T10:08:26.367Z,26.00
2019-05-30T10:10:55.501Z,26.00
2019-05-30T10:13:24.580Z,25.80
2019-05-30T10:15:53.594Z,25.40
2019-05-30T10:18:22.661Z,26.10
2019-05-30T10:20:53.230Z,26.70
2019-05-30T10:23:22.566Z,26.60
2019-05-30T10:25:51.713Z,26.30
2019-05-30T10:28:21.130Z,26.20
2019-05-30T10:30:55.859Z,25.80
2019-05-30T10:33:21.595Z,26.30
2019-05-30T10:35:51.675Z,26.50
2019-05-30T10:38:25.419Z,26.30
2019-05-30T10:40:54.481Z,26.30
2019-05-30T10:43:23.672Z,25.80
2019-05-30T10:45:53.373Z,26.10
2019-05-30T10:48:22.815Z,25.50
2019-05-30T10:50:52.418Z,25.30
2019-05-30T10:53:21.664Z,25.50
2019-05-30T10:55:53.011Z,25.30
2019-05-30T10:58:22.542Z,24.90
2019-05-30T11:00:55.735Z,25.80
2019-05-30T11:03:26.531Z,26.20
2019-05-30T11:06:07.619Z,26.00
2019-05-30T11:08:39.141Z,26.10
2019-05-30T11:11:08.195Z,26.10
2019-05-30T11:13:37.283Z,25.90
2019-05-30T11:16:06.886Z,25.50
2019-05-30T11:18:35.991Z,25.90
2019-05-30T11:21:05.325Z,26.50
2019-05-30T11:23:34.529Z,26.70
2019-05-30T11:26:06.611Z,27.10
2019-05-30T11:28:36.998Z,27.10
2019-05-30T11:31:06.069Z,26.70
2019-05-30T11:33:35.313Z,26.70
2019-05-30T11:36:04.671Z,26.70
2019-05-30T11:38:34.276Z,26.60
2019-05-30T11:41:03.598Z,26.60
2019-05-30T11:43:32.710Z,26.70
2019-05-30T11:46:02.031Z,26.50
2019-05-30T11:48:31.253Z,26.80
2019-05-30T11:51:00.304Z,27.20
2019-05-30T11:53:29.565Z,26.60
2019-05-30T11:56:00.365Z,26.20
2019-05-30T11:58:30.507Z,26.30
2019-05-30T12:01:00.568Z,26.70
2019-05-30T12:03:29.903Z,26.40
2019-05-30T12:06:00.736Z,26.50
2019-05-30T12:08:30.541Z,26.70
2019-05-30T12:11:01.245Z,26.70
2019-05-30T12:13:30.753Z,26.90
2019-05-30T12:15:59.966Z,26.90
2019-05-30T12:18:29.571Z,27.10
2019-05-30T12:20:59.766Z,27.50
2019-05-30T12:23:29.049Z,26.90
2019-05-30T12:25:58.184Z,27.30
2019-05-30T12:28:27.347Z,27.40
2019-05-30T12:31:01.756Z,26.60
2019-05-30T12:33:27.949Z,25.90
2019-05-30T12:35:58.453Z,26.10
2019-05-30T12:38:27.792Z,26.60
2019-05-30T12:40:58.700Z,26.80
2019-05-30T12:43:27.922Z,27.00
2019-05-30T12:45:57.008Z,26.50
2019-05-30T12:48:26.252Z,27.10
2019-05-30T12:50:56.874Z,27.40
2019-05-30T12:53:28.122Z,27.40
2019-05-30T12:55:58.272Z,27.80
2019-05-30T12:58:27.703Z,27.80
2019-05-30T13:00:57.370Z,28.20
2019-05-30T13:03:26.516Z,28.40
2019-05-30T13:05:57.027Z,28.20
2019-05-30T13:08:26.258Z,28.40
2019-05-30T13:10:55.606Z,28.80
2019-05-30T13:13:24.720Z,28.50
2019-05-30T13:15:54.594Z,28.30
2019-05-30T13:18:23.999Z,28.60
2019-05-30T13:20:53.226Z,28.70
2019-05-30T13:23:22.539Z,28.60
2019-05-30T13:25:51.769Z,28.90
2019-05-30T13:28:21.077Z,28.20
2019-05-30T13:30:50.212Z,28.60
2019-05-30T13:33:19.518Z,27.70
2019-05-30T13:35:48.829Z,27.80
2019-05-30T13:38:25.973Z,27.20
2019-05-30T13:40:49.144Z,27.80
2019-05-30T13:43:19.043Z,28.20
2019-05-30T13:45:48.042Z,28.10
2019-05-30T13:48:17.272Z,28.60
2019-05-30T13:50:46.927Z,28.40
2019-05-30T13:53:16.000Z,29.00
2019-05-30T13:55:45.384Z,29.70
2019-05-30T13:58:14.470Z,29.40
2019-05-30T14:00:44.505Z,28.80
2019-05-30T14:03:13.846Z,28.00
2019-05-30T14:05:43.064Z,27.40
2019-05-30T14:08:16.422Z,27.10
2019-05-30T14:10:43.641Z,27.10
2019-05-30T14:13:12.903Z,27.30
2019-05-30T14:15:42.127Z,27.60
2019-05-30T14:18:11.674Z,27.50
2019-05-30T14:20:41.412Z,27.30
2019-05-30T14:23:11.804Z,27.20
2019-05-30T14:25:41.554Z,27.30
2019-05-30T14:28:12.059Z,27.00
2019-05-30T14:30:41.454Z,27.10
2019-05-30T14:33:10.877Z,26.90
2019-05-30T14:35:40.795Z,26.60
2019-05-30T14:38:10.702Z,26.20
2019-05-30T14:40:39.971Z,25.80
2019-05-30T14:43:09.327Z,25.80
2019-05-30T14:45:38.760Z,25.60
2019-05-30T14:48:08.607Z,25.40
2019-05-30T14:50:38.043Z,25.40
2019-05-30T14:53:07.172Z,25.50
2019-05-30T14:55:36.474Z,25.20
2019-05-30T14:58:07.050Z,24.90
2019-05-30T15:00:36.384Z,24.80
2019-05-30T15:03:09.242Z,24.80
2019-05-30T15:05:36.475Z,25.00
2019-05-30T15:08:06.513Z,25.10
2019-05-30T15:10:36.630Z,25.00
2019-05-30T15:13:07.492Z,25.00
2019-05-30T15:15:36.691Z,24.80
2019-05-30T15:18:06.845Z,24.40
2019-05-30T15:20:36.406Z,24.00
2019-05-30T15:23:05.620Z,23.80
2019-05-30T15:25:34.854Z,24.00
2019-05-30T15:28:03.905Z,24.00
2019-05-30T15:30:33.132Z,23.90
2019-05-30T15:33:02.256Z,24.10
2019-05-30T15:35:31.380Z,23.90
2019-05-30T15:38:00.749Z,24.10
2019-05-30T15:40:29.978Z,24.10
2019-05-30T15:42:59.259Z,24.10
2019-05-30T15:45:28.580Z,23.90
2019-05-30T15:47:57.681Z,23.80
2019-05-30T15:50:26.903Z,23.70
2019-05-30T15:52:56.150Z,23.60
2019-05-30T15:55:25.420Z,23.50
2019-05-30T15:57:54.562Z,23.40
2019-05-30T16:00:24.480Z,23.30
2019-05-30T16:03:00.920Z,23.20
2019-05-30T16:05:30.968Z,23.00
2019-05-30T16:08:00.341Z,23.00
2019-05-30T16:10:29.426Z,23.10
2019-05-30T16:12:58.547Z,23.00
2019-05-30T16:15:27.653Z,22.90
2019-05-30T16:17:57.912Z,22.90
2019-05-30T16:20:27.149Z,22.90
2019-05-30T16:22:56.289Z,22.90
2019-05-30T16:25:27.152Z,22.80
2019-05-30T16:27:56.238Z,22.80
2019-05-30T16:30:27.179Z,22.70
2019-05-30T16:32:56.496Z,22.70
2019-05-30T16:35:26.507Z,22.70
2019-05-30T16:37:56.555Z,22.70
2019-05-30T16:40:26.702Z,22.80
2019-05-30T16:42:56.091Z,22.70
2019-05-30T16:45:25.448Z,22.70
2019-05-30T16:47:55.709Z,22.60
2019-05-30T16:50:25.006Z,22.60
2019-05-30T16:52:54.010Z,22.60
2019-05-30T16:55:23.479Z,22.50
2019-05-30T16:57:52.789Z,22.50
2019-05-30T17:00:23.631Z,22.60
2019-05-30T17:02:53.192Z,22.50
2019-05-30T17:05:22.416Z,22.60
2019-05-30T17:07:51.533Z,22.50
2019-05-30T17:10:26.627Z,22.40
2019-05-30T17:12:52.154Z,22.40
2019-05-30T17:15:22.013Z,22.50
2019-05-30T17:17:51.225Z,22.50
2019-05-30T17:20:22.475Z,22.60
2019-05-30T17:22:51.683Z,22.50
2019-05-30T17:25:21.080Z,22.40
2019-05-30T17:27:50.192Z,22.40
2019-05-30T17:30:19.962Z,22.50
2019-05-30T17:32:50.535Z,22.10
2019-05-30T17:35:20.098Z,21.90
2019-05-30T17:37:49.413Z,21.80
2019-05-30T17:40:20.509Z,21.40
2019-05-30T17:42:49.807Z,21.30
2019-05-30T17:45:21.064Z,21.30
2019-05-30T17:47:58.315Z,21.20
2019-05-30T17:50:22.000Z,21.20
2019-05-30T17:52:51.403Z,21.00
2019-05-30T17:55:21.716Z,20.90
2019-05-30T17:57:51.225Z,20.90
2019-05-30T18:00:24.426Z,21.00
2019-05-30T18:02:53.886Z,20.90
2019-05-30T18:05:23.061Z,20.90
2019-05-30T18:07:52.183Z,20.80
2019-05-30T18:10:22.764Z,20.70
2019-05-30T18:12:51.998Z,20.70
2019-05-30T18:15:24.892Z,20.70
2019-05-30T18:17:52.207Z,20.50
2019-05-30T18:20:23.151Z,20.50
2019-05-30T18:22:52.503Z,20.40
2019-05-30T18:25:23.605Z,20.40
2019-05-30T18:27:53.951Z,20.40
2019-05-30T18:30:27.994Z,20.30
2019-05-30T18:33:00.552Z,20.20
2019-05-30T18:35:30.478Z,20.20
2019-05-30T18:38:01.848Z,20.30
2019-05-30T18:40:33.234Z,20.40
2019-05-30T18:43:02.711Z,20.30
2019-05-30T18:45:51.309Z,20.30
2019-05-30T18:48:20.401Z,20.10
2019-05-30T18:50:49.582Z,20.00
2019-05-30T18:53:18.671Z,20.00
2019-05-30T18:55:48.745Z,20.00
2019-05-30T18:58:17.916Z,19.90
2019-05-30T19:00:47.496Z,19.90
2019-05-30T19:03:16.797Z,19.80
2019-05-30T19:05:48.400Z,19.80
2019-05-30T19:08:17.839Z,19.80
2019-05-30T19:10:47.022Z,19.70
2019-05-30T19:13:16.206Z,19.70
2019-05-30T19:15:46.480Z,19.70
2019-05-30T19:18:15.654Z,19.70
2019-05-30T19:20:44.851Z,19.70
2019-05-30T19:23:14.154Z,19.70
2019-05-30T19:25:44.165Z,19.70
2019-05-30T19:28:13.614Z,19.60
2019-05-30T19:30:43.150Z,19.60
2019-05-30T19:33:12.577Z,19.50
2019-05-30T19:35:41.803Z,19.50
2019-05-30T19:38:11.024Z,19.40
2019-05-30T19:40:40.333Z,19.40
2019-05-30T19:43:09.533Z,19.50
2019-05-30T19:45:38.750Z,19.50
2019-05-30T19:48:13.798Z,19.50
2019-05-30T19:50:43.306Z,19.50
2019-05-30T19:53:12.695Z,19.50
2019-05-30T19:55:42.159Z,19.50
2019-05-30T19:58:11.553Z,19.50
2019-05-30T20:00:57.576Z,19.50
2019-05-30T20:03:11.906Z,19.40
2019-05-30T20:05:41.357Z,19.40
2019-05-30T20:08:10.696Z,19.40
2019-05-30T20:10:41.232Z,19.40
2019-05-30T20:13:10.625Z,19.30
2019-05-30T20:15:39.825Z,19.40
2019-05-30T20:18:09.314Z,19.20
2019-05-30T20:20:54.086Z,19.20
2019-05-30T20:23:09.333Z,19.10
2019-05-30T20:25:41.846Z,19.10
2019-05-30T20:28:09.285Z,19.10
2019-05-30T20:30:39.170Z,19.00
2019-05-30T20:33:08.318Z,19.00
2019-05-30T20:35:38.951Z,19.00
2019-05-30T20:38:08.171Z,19.00
2019-05-30T20:40:38.607Z,19.00
2019-05-30T20:43:08.128Z,19.00
2019-05-30T20:45:41.976Z,18.90
2019-05-30T20:48:08.705Z,18.90
2019-05-30T20:50:39.011Z,18.90
2019-05-30T20:53:08.404Z,18.80
2019-05-30T20:55:38.331Z,18.90
2019-05-30T20:58:07.698Z,18.80
2019-05-30T21:00:39.864Z,18.80
2019-05-30T21:03:09.402Z,18.80
2019-05-30T21:05:39.797Z,18.70
2019-05-30T21:08:10.035Z,18.70
2019-05-30T21:10:41.131Z,18.70
2019-05-30T21:13:10.692Z,18.70
2019-05-30T21:15:41.822Z,18.70
2019-05-30T21:18:11.337Z,18.70
2019-05-30T21:20:42.131Z,18.60
2019-05-30T21:23:11.537Z,18.60
2019-05-30T21:25:41.039Z,18.70
2019-05-30T21:28:10.061Z,18.50
2019-05-30T21:30:39.365Z,18.50
2019-05-30T21:33:08.817Z,18.50
2019-05-30T21:35:39.588Z,18.40
2019-05-30T21:38:08.795Z,18.40
2019-05-30T21:40:38.159Z,18.30
2019-05-30T21:43:35.720Z,18.30
2019-05-30T21:46:05.065Z,18.40
2019-05-30T21:48:45.398Z,18.40
2019-05-30T21:51:19.804Z,18.30
2019-05-30T21:53:52.345Z,18.30
2019-05-30T21:56:29.544Z,18.30
2019-05-30T21:59:09.774Z,18.30
2019-05-30T22:01:42.615Z,18.30
2019-05-30T22:04:16.229Z,18.30
2019-05-30T22:06:50.963Z,18.30
2019-05-30T22:09:21.741Z,18.30
2019-05-30T22:11:54.337Z,18.30
2019-05-30T22:14:26.801Z,18.20
2019-05-30T22:17:01.760Z,18.20
2019-05-30T22:19:34.268Z,18.10
2019-05-30T22:22:06.485Z,18.20
2019-05-30T22:24:38.556Z,18.20
2019-05-30T22:27:12.634Z,18.10
2019-05-30T22:29:42.242Z,18.10
2019-05-30T22:32:11.484Z,18.10
2019-05-30T22:34:40.691Z,18.00
2019-05-30T22:37:09.936Z,18.00
2019-05-30T22:39:39.814Z,18.00
2019-05-30T22:42:09.559Z,18.00
2019-05-30T22:44:38.569Z,18.00
2019-05-30T22:47:07.751Z,17.90
2019-05-30T22:49:36.894Z,17.90
2019-05-30T22:52:06.090Z,17.90
2019-05-30T22:54:54.629Z,17.90
2019-05-30T22:57:23.878Z,17.90
2019-05-30T22:59:53.090Z,17.90
2019-05-30T23:02:22.222Z,17.90
2019-05-30T23:04:52.245Z,17.80
2019-05-30T23:07:21.462Z,17.80
2019-05-30T23:09:51.806Z,17.80
2019-05-30T23:12:22.601Z,17.80
2019-05-30T23:14:52.259Z,17.80
2019-05-30T23:17:21.322Z,17.70
2019-05-30T23:19:51.437Z,17.70
2019-05-30T23:22:21.000Z,17.80
2019-05-30T23:24:52.046Z,17.70
2019-05-30T23:27:20.973Z,17.70
2019-05-30T23:29:50.035Z,17.70
2019-05-30T23:32:20.983Z,17.70
2019-05-30T23:34:50.194Z,17.60
2019-05-30T23:37:19.408Z,17.60
2019-05-30T23:39:50.723Z,17.60
2019-05-30T23:42:21.370Z,17.60
2019-05-30T23:44:51.276Z,17.50
2019-05-30T23:47:20.681Z,17.50
2019-05-30T23:49:50.041Z,17.50
2019-05-30T23:52:20.527Z,17.50
2019-05-30T23:54:50.048Z,17.50
2019-05-30T23:57:19.439Z,17.50
2019-05-30T23:59:48.920Z,17.50
